createdAt,value
2022-08-22T00:00:13.553Z,86.43
2022-08-22T00:02:45.270Z,60.23
2022-08-22T00:02:58.022Z,87.93
2022-08-22T00:03:03.566Z,55.16
2022-08-22T00:03:06.413Z,86.69
2022-08-22T00:03:10.287Z,83.19
2022-08-22T00:03:11.561Z,62.39
2022-08-22T00:03:17.551Z,87.38
2022-08-22T00:05:57.438Z,87.07
2022-08-22T00:08:32.701Z,87.37
2022-08-22T00:11:08.783Z,88.00
2022-08-22T00:13:46.184Z,87.00
2022-08-22T00:16:19.461Z,86.24
2022-08-22T00:18:52.700Z,85.58
2022-08-22T00:21:26.386Z,86.22
2022-08-22T00:24:07.168Z,85.41
2022-08-22T00:26:45.412Z,85.86
2022-08-22T00:29:16.652Z,86.89
2022-08-22T00:31:50.827Z,87.67
2022-08-22T00:34:30.973Z,87.02
2022-08-22T00:37:04.153Z,87.36
2022-08-22T00:39:37.418Z,88.23
2022-08-22T00:42:31.759Z,87.53
2022-08-22T00:45:34.525Z,87.11
2022-08-22T00:48:19.762Z,87.51
2022-08-22T00:51:11.097Z,89.06
2022-08-22T00:53:46.857Z,89.54
2022-08-22T00:56:45.998Z,89.12
2022-08-22T00:59:30.122Z,90.63
2022-08-22T01:02:11.108Z,89.51
2022-08-22T01:05:02.254Z,89.10
2022-08-22T01:07:45.126Z,89.46
2022-08-22T01:10:32.141Z,88.11
2022-08-22T01:13:16.090Z,87.91
2022-08-22T01:15:45.720Z,87.85
2022-08-22T01:18:33.964Z,87.45
2022-08-22T01:21:38.466Z,88.53
2022-08-22T01:25:04.749Z,89.17
2022-08-22T01:28:07.510Z,88.72
2022-08-22T01:30:52.357Z,88.81
2022-08-22T01:33:53.517Z,88.61
2022-08-22T01:36:43.954Z,88.36
2022-08-22T01:39:50.574Z,87.32
2022-08-22T01:42:38.283Z,88.18
2022-08-22T01:45:57.188Z,88.54
2022-08-22T01:48:32.665Z,89.92
2022-08-22T01:51:13.778Z,90.82
2022-08-22T01:53:51.646Z,91.36
2022-08-22T01:56:21.592Z,91.75
2022-08-22T01:58:58.697Z,91.77
2022-08-22T02:01:46.889Z,91.07
2022-08-22T02:04:20.942Z,91.74
2022-08-22T02:07:01.088Z,89.40
2022-08-22T02:09:41.765Z,90.80
2022-08-22T02:12:28.178Z,90.91
2022-08-22T02:15:06.906Z,90.54
2022-08-22T02:17:52.521Z,91.13
2022-08-22T02:20:26.068Z,90.71
2022-08-22T02:22:58.502Z,91.76
2022-08-22T02:25:33.442Z,92.47
2022-08-22T02:28:14.756Z,92.56
2022-08-22T02:30:48.954Z,91.36
2022-08-22T02:33:30.227Z,91.23
2022-08-22T02:36:04.266Z,90.54
2022-08-22T02:38:38.514Z,90.99
2022-08-22T02:41:14.472Z,91.29
2022-08-22T02:43:50.335Z,92.01
2022-08-22T02:46:26.384Z,91.24
2022-08-22T02:49:03.789Z,90.33
2022-08-22T02:51:40.185Z,89.68
2022-08-22T02:54:17.340Z,89.58
2022-08-22T02:56:53.462Z,89.98
2022-08-22T02:59:33.325Z,90.27
2022-08-22T03:02:29.926Z,90.32
2022-08-22T03:05:01.181Z,91.68
2022-08-22T03:07:40.443Z,91.71
2022-08-22T03:10:21.394Z,91.96
2022-08-22T03:13:00.519Z,92.45
2022-08-22T03:15:35.447Z,91.72
2022-08-22T03:18:15.902Z,92.76
2022-08-22T03:20:48.964Z,92.46
2022-08-22T03:23:28.400Z,92.73
2022-08-22T03:26:07.484Z,92.33
2022-08-22T03:28:52.621Z,92.92
2022-08-22T03:31:30.630Z,93.73
2022-08-22T03:34:17.623Z,93.51
2022-08-22T03:36:59.441Z,92.14
2022-08-22T03:39:46.447Z,91.87
2022-08-22T03:42:56.137Z,92.19
2022-08-22T03:46:04.408Z,92.21
2022-08-22T03:48:58.363Z,93.16
2022-08-22T03:51:59.836Z,93.48
2022-08-22T03:54:52.746Z,94.07
2022-08-22T03:57:49.523Z,94.24
2022-08-22T04:00:40.039Z,94.27
2022-08-22T04:03:41.580Z,94.13
2022-08-22T04:06:35.419Z,94.04
2022-08-22T04:09:29.211Z,94.54
2022-08-22T04:12:23.952Z,94.27
2022-08-22T04:15:32.255Z,94.08
2022-08-22T04:18:19.207Z,93.19
2022-08-22T04:21:24.392Z,94.57
2022-08-22T04:24:10.269Z,94.16
2022-08-22T04:26:43.903Z,94.65
2022-08-22T04:29:20.806Z,93.57
2022-08-22T04:31:54.802Z,95.59
2022-08-22T04:34:29.551Z,95.21
2022-08-22T04:37:06.699Z,94.59
2022-08-22T04:39:41.799Z,96.23
2022-08-22T04:42:32.393Z,97.12
2022-08-22T04:45:08.272Z,97.31
2022-08-22T04:47:41.123Z,97.73
2022-08-22T04:50:17.196Z,97.60
2022-08-22T04:53:03.286Z,98.54
2022-08-22T04:55:40.806Z,97.57
2022-08-22T04:58:23.309Z,97.51
2022-08-22T05:00:58.662Z,97.21
2022-08-22T05:03:30.039Z,96.87
2022-08-22T05:06:02.915Z,95.59
2022-08-22T05:08:36.913Z,96.19
2022-08-22T05:11:10.528Z,96.15
2022-08-22T05:13:46.740Z,95.47
2022-08-22T05:16:19.125Z,96.49
2022-08-22T05:18:50.590Z,95.75
2022-08-22T05:21:23.007Z,95.43
2022-08-22T05:23:59.790Z,94.84
2022-08-22T05:26:29.651Z,95.63
2022-08-22T05:29:02.423Z,95.42
2022-08-22T05:31:34.219Z,95.72
2022-08-22T05:34:05.986Z,96.06
2022-08-22T05:36:38.140Z,97.07
2022-08-22T05:39:13.208Z,96.58
2022-08-22T05:41:42.248Z,96.51
2022-08-22T05:44:19.877Z,96.41
2022-08-22T05:46:51.093Z,96.52
2022-08-22T05:49:22.610Z,97.09
2022-08-22T05:52:01.981Z,96.97
2022-08-22T05:54:34.972Z,96.90
2022-08-22T05:57:10.493Z,97.10
2022-08-22T05:59:42.744Z,96.81
2022-08-22T06:02:17.950Z,96.95
2022-08-22T06:04:51.900Z,98.61
2022-08-22T06:07:24.576Z,97.87
2022-08-22T06:10:08.454Z,97.52
2022-08-22T06:12:43.185Z,97.15
2022-08-22T06:15:20.964Z,97.52
2022-08-22T06:17:52.152Z,97.11
2022-08-22T06:20:23.973Z,97.79
2022-08-22T06:22:55.362Z,97.07
2022-08-22T06:25:29.313Z,97.39
2022-08-22T06:28:00.172Z,96.16
2022-08-22T06:30:30.149Z,95.88
2022-08-22T06:33:02.446Z,94.88
2022-08-22T06:35:54.706Z,94.77
2022-08-22T06:38:29.579Z,94.28
2022-08-22T06:41:02.032Z,92.99
2022-08-22T06:43:38.161Z,92.21
2022-08-22T06:46:07.443Z,92.11
2022-08-22T06:48:37.537Z,91.17
2022-08-22T06:51:08.716Z,89.85
2022-08-22T06:53:47.842Z,89.26
2022-08-22T06:56:23.268Z,88.60
2022-08-22T06:58:55.653Z,86.91
2022-08-22T07:01:27.545Z,86.57
2022-08-22T07:04:00.298Z,86.02
2022-08-22T07:06:31.944Z,85.20
2022-08-22T07:08:59.989Z,85.34
2022-08-22T07:11:39.387Z,83.80
2022-08-22T07:14:11.465Z,83.32
2022-08-22T07:16:44.933Z,82.30
2022-08-22T07:19:25.449Z,82.17
2022-08-22T07:21:53.674Z,80.53
2022-08-22T07:24:25.620Z,79.89
2022-08-22T07:27:08.874Z,79.14
2022-08-22T07:29:47.801Z,77.24
2022-08-22T07:32:20.793Z,76.50
2022-08-22T07:35:05.620Z,75.50
2022-08-22T07:37:47.461Z,74.54
2022-08-22T07:40:23.326Z,74.24
2022-08-22T07:42:58.901Z,73.20
2022-08-22T07:45:34.423Z,72.76
2022-08-22T07:48:25.767Z,71.98
2022-08-22T07:51:08.437Z,69.55
2022-08-22T07:53:42.906Z,68.92
2022-08-22T07:56:16.896Z,68.05
2022-08-22T07:58:48.903Z,67.71
2022-08-22T08:01:20.577Z,67.22
2022-08-22T08:03:54.509Z,65.86
2022-08-22T08:06:24.792Z,64.52
2022-08-22T08:08:53.995Z,64.67
2022-08-22T08:11:24.128Z,62.19
2022-08-22T08:13:58.896Z,61.67
2022-08-22T08:16:29.659Z,59.02
2022-08-22T08:19:01.072Z,57.49
2022-08-22T08:21:32.015Z,56.11
2022-08-22T08:24:02.428Z,53.00
2022-08-22T08:26:34.806Z,52.00
2022-08-22T08:29:04.511Z,52.30
2022-08-22T08:31:38.199Z,51.74
2022-08-22T08:34:18.415Z,51.39
2022-08-22T08:36:52.318Z,52.29
2022-08-22T08:39:25.452Z,51.85
2022-08-22T08:42:30.502Z,51.33
2022-08-22T08:45:18.098Z,50.51
2022-08-22T08:48:16.551Z,49.80
2022-08-22T08:51:02.032Z,49.82
2022-08-22T08:54:03.676Z,50.22
2022-08-22T08:56:39.488Z,50.60
2022-08-22T08:59:25.647Z,49.70
2022-08-22T09:02:13.709Z,49.14
2022-08-22T09:05:25.410Z,47.63
2022-08-22T09:08:19.849Z,48.35
2022-08-22T09:11:09.904Z,49.15
2022-08-22T09:13:53.146Z,47.37
2022-08-22T09:16:46.233Z,48.28
2022-08-22T09:19:55.430Z,48.72
2022-08-22T09:23:05.145Z,49.20
2022-08-22T09:25:43.756Z,50.09
2022-08-22T09:28:17.677Z,48.54
2022-08-22T09:31:16.779Z,46.71
2022-08-22T09:33:56.909Z,47.44
2022-08-22T09:36:33.522Z,47.42
2022-08-22T09:39:13.291Z,47.11
2022-08-22T09:41:53.320Z,47.62
2022-08-22T09:44:39.449Z,47.46
2022-08-22T09:47:24.756Z,46.01
2022-08-22T09:50:05.117Z,44.87
2022-08-22T09:52:50.833Z,46.32
2022-08-22T09:55:38.553Z,45.92
2022-08-22T09:58:17.201Z,45.46
2022-08-22T10:00:55.384Z,44.42
2022-08-22T10:03:34.118Z,43.65
2022-08-22T10:06:13.422Z,42.44
2022-08-22T10:08:48.425Z,42.67
2022-08-22T10:11:26.885Z,41.70
2022-08-22T10:14:02.611Z,41.23
2022-08-22T10:16:43.156Z,41.36
2022-08-22T10:19:18.633Z,41.57
2022-08-22T10:22:21.511Z,44.05
2022-08-22T10:24:59.603Z,42.38
2022-08-22T10:27:43.567Z,41.34
2022-08-22T10:30:17.659Z,42.31
2022-08-22T10:32:53.415Z,40.83
2022-08-22T10:35:27.633Z,41.00
2022-08-22T10:37:59.073Z,41.64
2022-08-22T10:40:31.573Z,40.18
2022-08-22T10:43:10.206Z,39.81
2022-08-22T10:45:45.168Z,39.61
2022-08-22T10:48:35.216Z,38.74
2022-08-22T10:51:19.100Z,39.97
2022-08-22T10:54:00.195Z,40.17
2022-08-22T10:56:35.554Z,41.40
2022-08-22T10:59:22.796Z,41.06
2022-08-22T11:02:02.375Z,39.72
2022-08-22T11:04:43.918Z,39.63
2022-08-22T11:07:33.932Z,38.97
2022-08-22T11:10:10.540Z,39.26
2022-08-22T11:12:59.636Z,39.21
2022-08-22T11:16:01.169Z,40.91
2022-08-22T11:19:02.092Z,41.05
2022-08-22T11:21:43.930Z,40.66
2022-08-22T11:24:34.653Z,40.09
2022-08-22T11:27:12.994Z,39.01
2022-08-22T11:29:48.929Z,39.55
2022-08-22T11:32:30.017Z,39.15
2022-08-22T11:35:04.441Z,38.62
2022-08-22T11:37:47.578Z,38.50
2022-08-22T11:40:31.304Z,38.20
2022-08-22T11:43:12.003Z,39.00
2022-08-22T11:45:48.987Z,37.58
2022-08-22T11:48:24.671Z,38.38
2022-08-22T11:51:00.325Z,38.50
2022-08-22T11:53:38.796Z,37.95
2022-08-22T11:56:20.295Z,37.83
2022-08-22T11:58:55.831Z,37.50
2022-08-22T12:01:34.632Z,37.92
2022-08-22T12:04:12.717Z,38.39
2022-08-22T12:06:58.391Z,37.40
2022-08-22T12:09:42.558Z,38.08
2022-08-22T12:12:24.759Z,36.56
2022-08-22T12:15:00.407Z,36.41
2022-08-22T12:18:21.335Z,37.16
2022-08-22T12:21:07.484Z,38.13
2022-08-22T12:23:56.299Z,38.02
2022-08-22T12:26:34.132Z,38.19
2022-08-22T12:29:19.231Z,38.91
2022-08-22T12:32:33.918Z,38.99
2022-08-22T12:35:17.973Z,39.29
2022-08-22T12:37:55.957Z,39.48
2022-08-22T12:40:34.712Z,39.69
2022-08-22T12:43:42.507Z,38.95
2022-08-22T12:46:18.450Z,39.41
2022-08-22T12:49:00.652Z,40.45
2022-08-22T12:51:44.340Z,40.15
2022-08-22T12:54:47.235Z,39.08
2022-08-22T12:57:26.803Z,40.38
2022-08-22T12:59:58.111Z,39.07
2022-08-22T13:02:30.552Z,39.35
2022-08-22T13:05:01.816Z,40.10
2022-08-22T13:07:31.843Z,39.00
2022-08-22T13:10:03.167Z,39.35
2022-08-22T13:12:39.945Z,38.17
2022-08-22T13:15:29.900Z,37.73
2022-08-22T13:18:18.807Z,37.16
2022-08-22T13:20:51.318Z,36.23
2022-08-22T13:23:29.005Z,36.20
2022-08-22T13:26:07.711Z,35.85
2022-08-22T13:28:45.197Z,36.63
2022-08-22T13:31:24.339Z,37.01
2022-08-22T13:33:54.801Z,36.41
2022-08-22T13:36:26.835Z,38.32
2022-08-22T13:39:02.558Z,39.22
2022-08-22T13:41:36.921Z,38.64
2022-08-22T13:44:20.553Z,39.34
2022-08-22T13:47:12.929Z,38.79
2022-08-22T13:49:44.158Z,39.41
2022-08-22T13:52:29.763Z,39.37
2022-08-22T13:55:03.625Z,39.53
2022-08-22T13:57:44.039Z,39.85
2022-08-22T14:00:57.748Z,39.65
2022-08-22T14:03:29.921Z,39.08
2022-08-22T14:06:32.543Z,39.01
2022-08-22T14:08:49.819Z,37.92
2022-08-22T14:11:29.468Z,38.30
2022-08-22T14:14:00.629Z,37.68
2022-08-22T14:16:35.534Z,37.58
2022-08-22T14:19:08.353Z,37.12
2022-08-22T14:21:42.770Z,37.24
2022-08-22T14:24:25.717Z,37.60
2022-08-22T14:26:59.251Z,38.45
2022-08-22T14:29:40.558Z,37.43
2022-08-22T14:32:35.391Z,39.08
2022-08-22T14:35:21.419Z,38.18
2022-08-22T14:37:54.412Z,36.66
2022-08-22T14:40:28.970Z,37.79
2022-08-22T14:43:03.925Z,37.02
2022-08-22T14:45:37.369Z,37.24
2022-08-22T14:48:30.850Z,39.09
2022-08-22T14:51:04.002Z,39.39
2022-08-22T14:53:34.766Z,38.85
2022-08-22T14:56:08.957Z,39.31
2022-08-22T14:58:48.795Z,39.97
2022-08-22T15:01:21.804Z,40.50
2022-08-22T15:03:55.411Z,39.91
2022-08-22T15:06:37.283Z,40.24
2022-08-22T15:09:08.443Z,40.50
2022-08-22T15:11:37.792Z,40.65
2022-08-22T15:14:16.165Z,41.00
2022-08-22T15:16:53.557Z,41.10
2022-08-22T15:19:35.481Z,41.21
2022-08-22T15:22:13.626Z,41.63
2022-08-22T15:24:44.423Z,41.66
2022-08-22T15:27:13.275Z,41.49
2022-08-22T15:29:55.609Z,40.88
2022-08-22T15:32:26.704Z,40.64
2022-08-22T15:35:05.424Z,39.33
2022-08-22T15:37:35.209Z,39.12
2022-08-22T15:40:11.890Z,39.30
2022-08-22T15:42:44.246Z,39.78
2022-08-22T15:45:34.029Z,40.32
2022-08-22T15:48:06.320Z,39.62
2022-08-22T15:50:41.954Z,39.68
2022-08-22T15:53:20.193Z,39.86
2022-08-22T15:56:22.398Z,38.80
2022-08-22T15:59:11.449Z,37.68
2022-08-22T16:01:44.339Z,38.79
2022-08-22T16:04:31.397Z,39.29
2022-08-22T16:07:02.565Z,39.78
2022-08-22T16:09:40.186Z,40.35
2022-08-22T16:12:26.107Z,40.13
2022-08-22T16:14:54.917Z,39.64
2022-08-22T16:17:46.582Z,39.78
2022-08-22T16:20:55.384Z,38.75
2022-08-22T16:23:24.956Z,38.62
2022-08-22T16:26:15.210Z,39.04
2022-08-22T16:28:58.901Z,39.47
2022-08-22T16:31:33.145Z,39.12
2022-08-22T16:34:23.294Z,39.29
2022-08-22T16:36:51.836Z,39.50
2022-08-22T16:39:38.546Z,39.49
2022-08-22T16:42:25.849Z,39.63
2022-08-22T16:44:59.267Z,39.61
2022-08-22T16:47:42.713Z,39.50
2022-08-22T16:50:29.244Z,39.53
2022-08-22T16:53:01.574Z,39.25
2022-08-22T16:56:10.093Z,39.52
2022-08-22T16:59:22.422Z,40.25
2022-08-22T17:02:00.916Z,39.51
2022-08-22T17:04:40.228Z,40.06
2022-08-22T17:07:22.138Z,40.30
2022-08-22T17:10:04.892Z,40.05
2022-08-22T17:12:52.625Z,40.36
2022-08-22T17:15:32.069Z,40.00
2022-08-22T17:18:12.251Z,40.65
2022-08-22T17:20:47.727Z,40.81
2022-08-22T17:23:29.359Z,40.72
2022-08-22T17:26:08.684Z,41.27
2022-08-22T17:28:42.790Z,41.31
2022-08-22T17:31:18.336Z,41.68
2022-08-22T17:34:10.993Z,42.78
2022-08-22T17:37:04.986Z,43.62
2022-08-22T17:39:55.577Z,44.37
2022-08-22T17:42:40.048Z,44.83
2022-08-22T17:45:19.422Z,45.18
2022-08-22T17:47:52.504Z,45.50
2022-08-22T17:50:26.678Z,45.54
2022-08-22T17:53:02.095Z,46.47
2022-08-22T17:55:33.634Z,46.14
2022-08-22T17:58:07.605Z,46.72
2022-08-22T18:00:40.914Z,46.18
2022-08-22T18:03:14.780Z,47.19
2022-08-22T18:05:51.540Z,46.30
2022-08-22T18:11:24.028Z,47.33
2022-08-22T18:13:58.394Z,47.36
2022-08-22T18:16:36.444Z,47.47
2022-08-22T18:19:12.896Z,47.87
2022-08-22T18:21:48.284Z,48.00
2022-08-22T18:24:23.353Z,47.96
2022-08-22T18:26:56.998Z,48.45
2022-08-22T18:29:29.558Z,48.86
2022-08-22T18:32:07.788Z,49.10
2022-08-22T18:34:43.906Z,50.07
2022-08-22T18:37:22.531Z,50.57
2022-08-22T18:39:56.543Z,50.93
2022-08-22T18:42:30.106Z,51.88
2022-08-22T18:44:58.179Z,52.30
2022-08-22T18:47:32.752Z,53.00
2022-08-22T18:50:03.590Z,53.13
2022-08-22T18:52:40.820Z,52.99
2022-08-22T18:55:37.642Z,53.11
2022-08-22T18:58:39.177Z,53.62
2022-08-22T19:01:42.344Z,53.89
2022-08-22T19:04:36.493Z,53.92
2022-08-22T19:07:25.579Z,54.11
2022-08-22T19:10:14.115Z,54.42
2022-08-22T19:13:13.089Z,54.90
2022-08-22T19:15:58.269Z,54.53
2022-08-22T19:18:44.338Z,54.92
2022-08-22T19:21:45.513Z,55.60
2022-08-22T19:24:37.746Z,55.66
2022-08-22T19:27:30.938Z,55.92
2022-08-22T19:30:02.337Z,56.21
2022-08-22T19:33:00.537Z,56.44
2022-08-22T19:35:37.924Z,56.58
2022-08-22T19:38:09.068Z,56.95
2022-08-22T19:40:55.898Z,57.49
2022-08-22T19:43:32.782Z,57.36
2022-08-22T19:46:03.764Z,57.74
2022-08-22T19:48:43.598Z,57.87
2022-08-22T19:51:15.805Z,58.29
2022-08-22T19:53:53.851Z,58.15
2022-08-22T19:56:34.309Z,58.40
2022-08-22T19:59:24.049Z,58.31
2022-08-22T20:01:58.945Z,58.67
2022-08-22T20:04:56.321Z,59.15
2022-08-22T20:07:34.174Z,58.86
2022-08-22T20:10:21.948Z,59.06
2022-08-22T20:13:04.226Z,59.48
2022-08-22T20:15:36.093Z,59.46
2022-08-22T20:18:47.370Z,59.96
2022-08-22T20:21:00.351Z,60.62
2022-08-22T20:23:32.294Z,60.95
2022-08-22T20:26:02.260Z,60.82
2022-08-22T20:28:40.254Z,61.27
2022-08-22T20:31:13.636Z,61.68
2022-08-22T20:33:46.049Z,61.67
2022-08-22T20:36:28.453Z,62.12
2022-08-22T20:39:01.303Z,61.60
2022-08-22T20:41:35.616Z,62.25
2022-08-22T20:44:13.493Z,62.12
2022-08-22T20:46:53.811Z,61.90
2022-08-22T20:49:26.039Z,62.15
2022-08-22T20:51:57.083Z,62.89
2022-08-22T20:54:27.227Z,62.32
2022-08-22T20:57:00.137Z,62.83
2022-08-22T20:59:37.133Z,62.91
2022-08-22T21:02:14.602Z,63.39
2022-08-22T21:04:49.011Z,64.39
2022-08-22T21:07:23.441Z,64.25
2022-08-22T21:10:15.221Z,64.65
2022-08-22T21:13:02.226Z,65.32
2022-08-22T21:15:36.633Z,65.58
2022-08-22T21:18:05.297Z,65.49
2022-08-22T21:20:36.744Z,65.40
2022-08-22T21:23:09.025Z,65.42
2022-08-22T21:25:51.665Z,65.72
2022-08-22T21:28:33.200Z,65.54
2022-08-22T21:31:08.476Z,65.51
2022-08-22T21:33:39.956Z,65.53
2022-08-22T21:36:11.574Z,66.13
2022-08-22T21:38:40.697Z,66.76
2022-08-22T21:41:08.797Z,66.53
2022-08-22T21:43:40.229Z,66.39
2022-08-22T21:46:25.731Z,67.11
2022-08-22T21:49:01.242Z,67.12
2022-08-22T21:51:42.070Z,67.89
2022-08-22T21:54:33.169Z,68.17
2022-08-22T21:57:16.234Z,68.50
2022-08-22T21:59:59.684Z,68.79
2022-08-22T22:02:31.347Z,68.95
2022-08-22T22:05:04.490Z,69.00
2022-08-22T22:07:37.655Z,68.88
2022-08-22T22:10:08.471Z,69.36
2022-08-22T22:12:36.372Z,69.33
2022-08-22T22:15:06.512Z,69.50
2022-08-22T22:17:34.554Z,69.75
2022-08-22T22:20:02.635Z,69.66
2022-08-22T22:22:30.425Z,69.83
2022-08-22T22:24:58.411Z,69.80
2022-08-22T22:27:26.256Z,70.22
2022-08-22T22:29:54.068Z,70.54
2022-08-22T22:32:23.240Z,71.30
2022-08-22T22:34:51.059Z,71.57
2022-08-22T22:37:19.497Z,72.58
2022-08-22T22:39:47.428Z,72.39
2022-08-22T22:42:15.705Z,72.17
2022-08-22T22:44:43.952Z,71.61
2022-08-22T22:47:15.402Z,72.28
2022-08-22T22:49:46.069Z,72.93
2022-08-22T22:52:13.879Z,72.65
2022-08-22T22:54:41.722Z,72.78
2022-08-22T22:57:12.851Z,72.15
2022-08-22T22:59:41.805Z,72.42
2022-08-22T23:02:12.837Z,72.90
2022-08-22T23:04:43.289Z,73.59
2022-08-22T23:07:13.664Z,73.18
2022-08-22T23:09:45.177Z,73.54
2022-08-22T23:12:14.186Z,74.61
2022-08-22T23:14:42.510Z,74.54
2022-08-22T23:17:10.548Z,75.21
2022-08-22T23:19:39.339Z,75.36
2022-08-22T23:22:08.972Z,74.80
2022-08-22T23:24:40.047Z,75.09
2022-08-22T23:27:09.553Z,74.95
2022-08-22T23:29:38.369Z,75.23
2022-08-22T23:32:06.564Z,75.38
2022-08-22T23:34:36.985Z,75.89
2022-08-22T23:37:06.610Z,76.18
2022-08-22T23:39:36.343Z,76.56
2022-08-22T23:42:07.688Z,77.50
2022-08-22T23:44:37.599Z,77.81
2022-08-22T23:47:06.821Z,78.76
2022-08-22T23:49:34.923Z,79.14
2022-08-22T23:52:03.280Z,79.68
2022-08-22T23:54:31.306Z,79.79
2022-08-22T23:57:01.547Z,79.76
2022-08-22T23:59:34.137Z,79.67
